createdAt,value
2023-01-13T00:01:10.813Z,10.35
2023-01-13T00:03:37.994Z,10.88
2023-01-13T00:06:05.770Z,9.80
2023-01-13T00:08:33.601Z,12.07
2023-01-13T00:11:00.461Z,10.60
2023-01-13T00:13:27.339Z,10.15
2023-01-13T00:15:59.315Z,11.07
2023-01-13T00:18:26.617Z,10.40
2023-01-13T00:21:01.085Z,12.85
2023-01-13T00:23:32.587Z,11.90
2023-01-13T00:26:02.281Z,11.45
2023-01-13T00:28:29.080Z,11.55
2023-01-13T00:30:58.408Z,12.23
2023-01-13T00:33:25.772Z,12.77
2023-01-13T00:35:59.394Z,12.43
2023-01-13T00:38:26.441Z,12.77
2023-01-13T00:41:01.695Z,11.90
2023-01-13T00:43:30.171Z,12.32
2023-01-13T00:45:56.911Z,13.40
2023-01-13T00:48:24.500Z,13.52
2023-01-13T00:51:09.943Z,12.85
2023-01-13T00:53:39.129Z,11.82
2023-01-13T00:56:18.067Z,13.32
2023-01-13T00:58:46.584Z,12.93
2023-01-13T01:01:19.912Z,12.10
2023-01-13T01:03:54.125Z,13.27
2023-01-13T01:06:26.095Z,12.85
2023-01-13T01:08:54.202Z,12.70
2023-01-13T01:11:24.088Z,13.15
2023-01-13T01:13:54.418Z,13.35
2023-01-13T01:16:23.800Z,13.02
2023-01-13T01:18:52.396Z,12.43
2023-01-13T01:21:20.377Z,11.70
2023-01-13T01:23:47.185Z,12.23
2023-01-13T01:26:20.563Z,12.30
2023-01-13T01:28:48.063Z,12.88
2023-01-13T01:31:21.465Z,12.75
2023-01-13T01:33:48.787Z,12.55
2023-01-13T01:36:18.932Z,12.75
2023-01-13T01:38:46.665Z,11.90
2023-01-13T01:41:19.743Z,11.70
2023-01-13T01:44:00.367Z,11.82
2023-01-13T01:46:42.089Z,11.88
2023-01-13T01:49:26.397Z,12.23
2023-01-13T01:51:59.159Z,12.48
2023-01-13T01:54:35.721Z,13.07
2023-01-13T01:57:02.549Z,12.20
2023-01-13T01:59:32.251Z,12.95
2023-01-13T02:01:59.256Z,12.25
2023-01-13T02:04:31.276Z,14.23
2023-01-13T02:06:58.558Z,13.23
2023-01-13T02:09:27.022Z,12.88
2023-01-13T02:12:12.262Z,13.65
2023-01-13T02:14:41.070Z,13.57
2023-01-13T02:17:16.744Z,14.05
2023-01-13T02:20:25.577Z,12.93
2023-01-13T02:23:41.327Z,13.40
2023-01-13T02:26:32.089Z,13.20
2023-01-13T02:29:49.505Z,11.93
2023-01-13T02:32:55.511Z,11.88
2023-01-13T02:35:47.425Z,10.40
2023-01-13T02:38:16.623Z,11.65
2023-01-13T02:40:56.691Z,12.57
2023-01-13T02:43:53.497Z,12.13
2023-01-13T02:46:50.499Z,11.60
2023-01-13T02:49:32.379Z,11.65
2023-01-13T02:54:30.455Z,10.88
2023-01-13T02:56:59.358Z,11.65
2023-01-13T02:59:27.921Z,12.73
2023-01-13T03:01:59.299Z,13.05
2023-01-13T03:04:46.421Z,11.27
2023-01-13T03:07:30.974Z,11.82
2023-01-13T03:10:09.542Z,11.23
2023-01-13T03:13:06.972Z,11.23
2023-01-13T03:15:54.143Z,10.13
2023-01-13T03:18:40.610Z,11.00
2023-01-13T03:21:22.257Z,11.40
2023-01-13T03:24:03.312Z,11.48
2023-01-13T03:26:51.088Z,10.90
2023-01-13T03:29:34.705Z,11.48
2023-01-13T03:32:23.831Z,10.38
2023-01-13T03:34:57.208Z,10.02
2023-01-13T03:37:34.853Z,11.18
2023-01-13T03:40:07.639Z,10.63
2023-01-13T03:42:38.141Z,11.18
2023-01-13T03:45:14.425Z,9.82
2023-01-13T03:48:14.020Z,9.90
2023-01-13T03:51:07.938Z,10.73
2023-01-13T03:53:43.485Z,10.48
2023-01-13T03:56:15.720Z,10.40
2023-01-13T03:58:47.819Z,14.85
2023-01-13T04:01:21.064Z,12.82
2023-01-13T04:04:08.565Z,11.68
2023-01-13T04:07:01.280Z,11.73
2023-01-13T04:09:30.939Z,13.40
2023-01-13T04:12:25.188Z,12.20
2023-01-13T04:14:53.537Z,11.32
2023-01-13T04:17:21.298Z,11.77
2023-01-13T04:19:48.064Z,11.52
2023-01-13T04:22:14.887Z,11.75
2023-01-13T04:24:41.654Z,12.40
2023-01-13T04:27:08.419Z,11.43
2023-01-13T04:29:35.249Z,11.13
2023-01-13T04:32:02.025Z,11.35
2023-01-13T04:34:28.770Z,11.80
2023-01-13T04:36:55.551Z,11.35
2023-01-13T04:39:22.295Z,10.90
2023-01-13T04:41:57.932Z,11.32
2023-01-13T04:44:24.875Z,11.43
2023-01-13T04:46:51.963Z,11.55
2023-01-13T04:49:18.980Z,11.70
2023-01-13T04:51:45.748Z,11.25
2023-01-13T04:54:12.618Z,10.95
2023-01-13T04:56:39.477Z,11.50
2023-01-13T04:59:06.282Z,11.73
2023-01-13T05:01:33.250Z,12.27
2023-01-13T05:04:00.097Z,11.13
2023-01-13T05:06:26.923Z,10.82
2023-01-13T05:08:53.698Z,10.52
2023-01-13T05:11:38.886Z,20.52
2023-01-13T05:14:24.448Z,13.05
2023-01-13T05:17:02.566Z,11.30
2023-01-13T05:19:40.823Z,11.23
2023-01-13T05:22:26.498Z,10.20
2023-01-13T05:25:11.841Z,11.07
2023-01-13T05:27:38.608Z,10.10
2023-01-13T05:30:06.462Z,10.20
2023-01-13T05:32:33.411Z,13.50
2023-01-13T05:35:00.553Z,15.13
2023-01-13T05:37:27.880Z,18.27
2023-01-13T05:40:13.018Z,13.13
2023-01-13T05:42:58.554Z,10.75
2023-01-13T05:45:25.999Z,10.43
2023-01-13T05:47:52.960Z,12.63
2023-01-13T05:50:19.750Z,13.50
2023-01-13T05:52:46.586Z,12.82
2023-01-13T05:55:13.573Z,13.88
2023-01-13T05:57:40.704Z,12.43
2023-01-13T06:00:08.360Z,15.52
2023-01-13T06:02:35.157Z,11.75
2023-01-13T06:05:01.973Z,12.75
2023-01-13T06:07:28.784Z,13.60
2023-01-13T06:09:55.562Z,10.95
2023-01-13T06:12:22.336Z,10.52
2023-01-13T06:14:49.090Z,12.05
2023-01-13T06:17:16.156Z,11.90
2023-01-13T06:19:43.091Z,8.27
2023-01-13T06:22:23.948Z,5.65
2023-01-13T06:24:53.575Z,7.60
2023-01-13T06:27:22.382Z,9.88
2023-01-13T06:29:49.626Z,9.15
2023-01-13T06:32:24.992Z,8.90
2023-01-13T06:34:57.780Z,8.73
2023-01-13T06:37:26.155Z,9.15
2023-01-13T06:39:58.584Z,9.27
2023-01-13T06:42:46.756Z,9.35
2023-01-13T06:45:13.810Z,8.05
2023-01-13T06:47:41.258Z,8.48
2023-01-13T06:50:08.668Z,7.55
2023-01-13T06:52:35.436Z,8.45
2023-01-13T06:55:02.983Z,7.78
2023-01-13T06:57:29.908Z,8.02
2023-01-13T06:59:56.697Z,8.18
2023-01-13T07:02:23.744Z,8.40
2023-01-13T07:04:50.579Z,8.10
2023-01-13T07:07:17.342Z,7.78
2023-01-13T07:09:44.107Z,7.32
2023-01-13T07:12:12.131Z,8.60
2023-01-13T07:14:57.580Z,8.40
2023-01-13T07:17:25.313Z,8.60
2023-01-13T07:19:53.185Z,8.88
2023-01-13T07:22:20.262Z,10.07
2023-01-13T07:24:47.047Z,8.88
2023-01-13T07:27:13.788Z,7.60
2023-01-13T07:29:40.715Z,7.95
2023-01-13T07:32:08.064Z,8.95
2023-01-13T07:34:34.965Z,9.18
2023-01-13T07:37:02.022Z,9.50
2023-01-13T07:39:28.840Z,10.60
2023-01-13T07:42:14.170Z,9.65
2023-01-13T07:44:41.052Z,10.80
2023-01-13T07:47:10.454Z,12.18
2023-01-13T07:49:37.436Z,10.05
2023-01-13T07:52:04.757Z,9.68
2023-01-13T07:54:40.223Z,11.13
2023-01-13T07:57:07.802Z,12.10
2023-01-13T07:59:34.734Z,10.23
2023-01-13T08:02:01.599Z,10.05
2023-01-13T08:04:28.433Z,10.23
2023-01-13T08:06:55.163Z,10.73
2023-01-13T08:09:22.139Z,10.70
2023-01-13T08:12:08.891Z,10.07
2023-01-13T08:14:35.864Z,10.60
2023-01-13T08:17:02.609Z,11.00
2023-01-13T08:19:29.397Z,11.93
2023-01-13T08:21:57.040Z,13.30
2023-01-13T08:24:23.819Z,10.30
2023-01-13T08:26:50.619Z,13.18
2023-01-13T08:29:17.499Z,12.43
2023-01-13T08:31:44.574Z,11.20
2023-01-13T08:34:11.523Z,9.68
2023-01-13T08:36:38.260Z,10.25
2023-01-13T08:39:05.026Z,11.07
2023-01-13T08:41:50.184Z,11.25
2023-01-13T08:44:16.979Z,11.27
2023-01-13T08:46:43.741Z,9.45
2023-01-13T08:49:10.533Z,10.40
2023-01-13T08:51:37.491Z,12.20
2023-01-13T08:54:04.459Z,17.80
2023-01-13T08:56:35.003Z,17.70
2023-01-13T08:59:02.848Z,12.87
2023-01-13T09:01:29.805Z,10.02
2023-01-13T09:03:56.885Z,8.80
2023-01-13T09:06:23.686Z,10.48
2023-01-13T09:08:50.558Z,11.10
2023-01-13T09:11:38.735Z,10.88
2023-01-13T09:14:05.514Z,11.85
2023-01-13T09:16:32.272Z,10.52
2023-01-13T09:18:59.044Z,10.63
2023-01-13T09:21:26.850Z,11.60
2023-01-13T09:23:53.631Z,9.90
2023-01-13T09:26:21.628Z,9.20
2023-01-13T09:28:48.556Z,8.55
2023-01-13T09:31:15.376Z,7.80
2023-01-13T09:34:00.587Z,7.32
2023-01-13T09:36:27.384Z,6.78
2023-01-13T09:38:54.244Z,6.28
2023-01-13T09:41:48.006Z,6.18
2023-01-13T09:44:22.546Z,6.35
2023-01-13T09:46:56.961Z,6.28
2023-01-13T09:49:44.065Z,5.72
2023-01-13T09:52:21.439Z,6.20
2023-01-13T09:55:18.765Z,5.25
2023-01-13T09:57:45.665Z,6.00
2023-01-13T10:00:24.425Z,5.43
2023-01-13T10:03:01.779Z,6.40
2023-01-13T10:05:37.367Z,5.30
2023-01-13T10:08:11.838Z,5.43
2023-01-13T10:10:51.372Z,5.65
2023-01-13T10:13:23.043Z,5.85
2023-01-13T10:16:06.434Z,5.25
2023-01-13T10:19:04.025Z,5.43
2023-01-13T10:21:52.589Z,7.38
2023-01-13T10:24:54.568Z,5.63
2023-01-13T10:27:39.543Z,5.88
2023-01-13T10:30:15.814Z,5.43
2023-01-13T10:32:46.297Z,6.63
2023-01-13T10:35:13.107Z,6.45
2023-01-13T10:37:40.057Z,6.90
2023-01-13T10:40:18.172Z,5.10
2023-01-13T10:42:45.006Z,4.90
2023-01-13T10:45:25.210Z,4.55
2023-01-13T10:48:10.685Z,5.20
2023-01-13T10:50:38.831Z,5.97
2023-01-13T10:53:22.642Z,4.85
2023-01-13T10:56:01.466Z,4.68
2023-01-13T10:58:28.686Z,4.70
2023-01-13T11:01:01.804Z,4.65
2023-01-13T11:03:41.620Z,4.95
2023-01-13T11:06:26.687Z,5.75
2023-01-13T11:08:55.541Z,5.10
2023-01-13T11:11:41.912Z,5.07
2023-01-13T11:14:41.623Z,4.93
2023-01-13T11:17:29.133Z,4.88
2023-01-13T11:20:05.197Z,4.93
2023-01-13T11:22:43.485Z,5.22
2023-01-13T11:25:30.431Z,5.00
2023-01-13T11:28:06.098Z,5.43
2023-01-13T11:30:42.766Z,6.38
2023-01-13T11:33:28.424Z,5.80
2023-01-13T11:36:00.873Z,6.38
2023-01-13T11:38:41.285Z,5.63
2023-01-13T11:41:44.108Z,5.38
2023-01-13T11:44:18.205Z,5.53
2023-01-13T11:46:47.908Z,5.75
2023-01-13T11:49:41.055Z,5.05
2023-01-13T11:52:13.676Z,5.53
2023-01-13T11:55:06.853Z,5.20
2023-01-13T11:58:00.164Z,4.15
2023-01-13T12:00:30.004Z,4.57
2023-01-13T12:03:14.194Z,4.53
2023-01-13T12:05:45.507Z,5.07
2023-01-13T12:08:31.166Z,3.92
2023-01-13T12:11:02.212Z,4.05
2023-01-13T12:13:47.781Z,3.88
2023-01-13T12:16:23.641Z,4.60
2023-01-13T12:18:50.406Z,4.57
2023-01-13T12:21:24.067Z,4.95
2023-01-13T12:23:56.709Z,4.45
2023-01-13T12:26:23.633Z,4.00
2023-01-13T12:29:19.062Z,7.25
2023-01-13T12:31:49.160Z,4.05
2023-01-13T12:34:54.094Z,3.72
2023-01-13T12:37:43.073Z,3.63
2023-01-13T12:40:34.186Z,3.90
2023-01-13T12:43:41.148Z,3.90
2023-01-13T12:46:23.246Z,4.00
2023-01-13T12:48:55.215Z,4.20
2023-01-13T12:51:37.642Z,4.22
2023-01-13T12:54:30.141Z,3.25
2023-01-13T12:57:00.580Z,3.78
2023-01-13T12:59:27.307Z,3.70
2023-01-13T13:02:24.880Z,3.50
2023-01-13T13:05:23.830Z,3.92
2023-01-13T13:08:19.249Z,4.03
2023-01-13T13:10:57.883Z,4.13
2023-01-13T13:14:00.589Z,3.70
2023-01-13T13:16:27.501Z,2.65
2023-01-13T13:19:20.192Z,3.30
2023-01-13T13:22:14.633Z,3.28
2023-01-13T13:24:51.040Z,3.45
2023-01-13T13:27:31.876Z,3.45
2023-01-13T13:30:12.847Z,3.92
2023-01-13T13:32:48.371Z,3.40
2023-01-13T13:35:51.749Z,3.78
2023-01-13T13:39:00.289Z,3.65
2023-01-13T13:41:47.878Z,4.07
2023-01-13T13:44:47.784Z,3.13
2023-01-13T13:47:14.877Z,3.92
2023-01-13T13:49:45.967Z,3.83
2023-01-13T13:52:22.101Z,5.18
2023-01-13T13:54:55.614Z,4.72
2023-01-13T13:57:39.537Z,6.00
2023-01-13T14:00:19.980Z,6.55
2023-01-13T14:02:54.106Z,7.43
2023-01-13T14:05:57.628Z,7.63
2023-01-13T14:08:26.228Z,9.27
2023-01-13T14:10:53.246Z,9.13
2023-01-13T14:13:22.252Z,9.38
2023-01-13T14:16:03.753Z,8.52
2023-01-13T14:18:46.100Z,9.35
2023-01-13T14:21:25.953Z,9.63
2023-01-13T14:23:56.533Z,9.00
2023-01-13T14:26:27.053Z,9.40
2023-01-13T14:28:56.473Z,9.27
2023-01-13T14:31:23.521Z,9.75
2023-01-13T14:33:53.670Z,9.65
2023-01-13T14:36:32.042Z,9.45
2023-01-13T14:39:04.848Z,9.50
2023-01-13T14:41:45.431Z,10.88
2023-01-13T14:44:32.305Z,9.68
2023-01-13T14:47:05.168Z,9.73
2023-01-13T14:49:31.907Z,10.88
2023-01-13T14:52:15.201Z,10.25
2023-01-13T14:54:46.823Z,10.07
2023-01-13T14:57:27.700Z,10.35
2023-01-13T15:00:13.284Z,10.98
2023-01-13T15:02:41.624Z,11.15
2023-01-13T15:05:17.765Z,11.27
2023-01-13T15:08:19.527Z,10.88
2023-01-13T15:11:01.970Z,10.32
2023-01-13T15:13:50.235Z,12.00
2023-01-13T15:16:28.394Z,12.02
2023-01-13T15:18:56.587Z,13.43
2023-01-13T15:21:23.882Z,13.63
2023-01-13T15:23:50.997Z,9.18
2023-01-13T15:26:18.327Z,9.32
2023-01-13T15:28:45.732Z,9.27
2023-01-13T15:34:59.926Z,8.85
2023-01-13T15:37:26.685Z,10.93
2023-01-13T15:39:53.447Z,8.93
2023-01-13T15:42:38.608Z,9.80
2023-01-13T15:48:53.177Z,9.52
2023-01-13T15:55:02.708Z,8.95
2023-01-13T15:57:32.531Z,10.60
2023-01-13T16:00:02.789Z,8.95
2023-01-13T16:02:30.958Z,10.05
2023-01-13T16:04:57.713Z,10.68
2023-01-13T16:07:25.800Z,9.48
2023-01-13T16:09:53.129Z,8.85
2023-01-13T16:12:20.368Z,9.13
2023-01-13T16:14:47.209Z,8.05
2023-01-13T16:17:18.088Z,8.65
2023-01-13T16:19:46.142Z,7.83
2023-01-13T16:22:14.733Z,10.88
2023-01-13T16:24:42.135Z,11.07
2023-01-13T16:27:24.088Z,9.88
2023-01-13T16:33:12.674Z,10.93
2023-01-13T16:39:21.862Z,12.30
2023-01-13T16:41:49.238Z,10.60
2023-01-13T16:44:16.049Z,8.88
2023-01-13T16:46:45.451Z,9.15
2023-01-13T16:49:14.040Z,10.02
2023-01-13T16:51:41.167Z,9.48
2023-01-13T16:54:08.109Z,9.93
2023-01-13T16:56:36.533Z,10.40
2023-01-13T16:59:08.721Z,9.88
2023-01-13T17:01:38.820Z,9.25
2023-01-13T17:04:06.230Z,11.93
2023-01-13T17:06:41.606Z,13.13
2023-01-13T17:09:18.180Z,10.52
2023-01-13T17:11:45.147Z,9.82
2023-01-13T17:14:19.199Z,14.25
2023-01-13T17:16:47.134Z,13.30
2023-01-13T17:19:14.429Z,12.27
2023-01-13T17:21:41.463Z,12.77
2023-01-13T17:24:09.776Z,11.95
2023-01-13T17:26:47.167Z,12.45
2023-01-13T17:29:16.743Z,10.82
2023-01-13T17:31:43.648Z,10.85
2023-01-13T17:34:12.464Z,12.88
2023-01-13T17:36:39.381Z,13.48
2023-01-13T17:39:06.416Z,13.05
2023-01-13T17:41:33.223Z,12.45
2023-01-13T17:43:59.962Z,12.00
2023-01-13T17:46:26.814Z,13.65
2023-01-13T17:48:54.076Z,12.85
2023-01-13T17:51:25.618Z,12.40
2023-01-13T17:53:53.918Z,11.32
2023-01-13T17:56:20.722Z,10.60
2023-01-13T17:58:47.513Z,10.55
2023-01-13T18:01:18.092Z,9.88
2023-01-13T18:03:45.493Z,9.63
2023-01-13T18:06:23.208Z,9.07
2023-01-13T18:08:52.057Z,11.13
2023-01-13T18:15:38.902Z,10.50
2023-01-13T18:22:06.181Z,10.55
2023-01-13T18:24:51.376Z,11.10
2023-01-13T18:27:24.372Z,9.77
2023-01-13T18:29:52.970Z,10.80
2023-01-13T18:32:20.487Z,11.18
2023-01-13T18:34:48.030Z,10.05
2023-01-13T18:37:17.088Z,12.05
2023-01-13T18:39:43.945Z,11.23
2023-01-13T18:42:29.855Z,10.10
2023-01-13T18:44:57.850Z,9.75
2023-01-13T18:47:30.446Z,11.70
2023-01-13T18:49:58.020Z,10.90
2023-01-13T18:52:25.270Z,9.90
2023-01-13T18:54:52.643Z,9.80
2023-01-13T18:57:21.363Z,9.50
2023-01-13T18:59:48.439Z,12.70
2023-01-13T19:02:18.027Z,9.32
2023-01-13T19:04:45.060Z,8.70
2023-01-13T19:07:13.108Z,10.40
2023-01-13T19:09:42.029Z,10.05
2023-01-13T19:12:10.373Z,8.57
2023-01-13T19:14:37.884Z,10.70
2023-01-13T19:17:09.425Z,10.15
2023-01-13T19:19:44.608Z,10.55
2023-01-13T19:22:17.932Z,10.05
2023-01-13T19:24:44.899Z,9.40
2023-01-13T19:27:15.988Z,9.73
2023-01-13T19:29:51.950Z,12.75
2023-01-13T19:32:22.007Z,13.27
2023-01-13T19:34:51.100Z,13.75
2023-01-13T19:37:18.801Z,11.77
2023-01-13T19:39:45.566Z,11.40
2023-01-13T19:42:31.868Z,13.20
2023-01-13T19:45:17.438Z,12.48
2023-01-13T19:47:45.635Z,12.00
2023-01-13T19:50:13.697Z,10.90
2023-01-13T19:52:41.687Z,10.90
2023-01-13T19:55:09.826Z,10.73
2023-01-13T19:57:38.271Z,11.50
2023-01-13T20:00:07.985Z,11.25
2023-01-13T20:02:36.668Z,11.20
2023-01-13T20:05:06.572Z,10.60
2023-01-13T20:07:35.139Z,9.48
2023-01-13T20:10:02.680Z,10.02
2023-01-13T20:12:29.905Z,10.77
2023-01-13T20:15:04.016Z,10.82
2023-01-13T20:17:30.833Z,10.15
2023-01-13T20:20:00.912Z,11.93
2023-01-13T20:22:27.716Z,21.27
2023-01-13T20:24:55.335Z,18.00
2023-01-13T20:27:23.738Z,16.73
2023-01-13T20:29:51.032Z,12.35
2023-01-13T20:32:17.839Z,19.80
2023-01-13T20:34:44.705Z,37.95
2023-01-13T20:37:11.471Z,41.95
2023-01-13T20:39:40.031Z,31.73
2023-01-13T20:42:25.296Z,29.13
2023-01-13T20:44:52.151Z,26.85
2023-01-13T20:47:18.930Z,21.08
2023-01-13T20:49:45.839Z,22.27
2023-01-13T20:52:12.651Z,26.90
2023-01-13T20:54:40.818Z,26.98
2023-01-13T20:57:09.941Z,27.90
2023-01-13T20:59:37.973Z,25.60
2023-01-13T21:02:07.041Z,27.98
2023-01-13T21:04:33.888Z,23.83
2023-01-13T21:07:00.648Z,18.67
2023-01-13T21:09:27.483Z,15.15
2023-01-13T21:12:13.047Z,14.50
2023-01-13T21:14:58.478Z,12.48
2023-01-13T21:17:43.867Z,14.20
2023-01-13T21:20:13.178Z,10.70
2023-01-13T21:22:43.565Z,9.65
2023-01-13T21:25:12.206Z,10.13
2023-01-13T21:27:39.072Z,9.50
2023-01-13T21:30:06.684Z,7.75
2023-01-13T21:32:33.447Z,9.13
2023-01-13T21:35:02.157Z,11.48
2023-01-13T21:37:28.983Z,9.70
2023-01-13T21:39:55.752Z,9.75
2023-01-13T21:42:41.143Z,8.20
2023-01-13T21:45:33.699Z,9.65
2023-01-13T21:48:00.442Z,9.50
2023-01-13T21:50:28.850Z,9.73
2023-01-13T21:52:57.696Z,9.70
2023-01-13T21:55:28.899Z,8.00
2023-01-13T21:58:09.896Z,8.35
2023-01-13T22:00:36.788Z,10.30
2023-01-13T22:03:05.339Z,11.63
2023-01-13T22:05:32.577Z,8.75
2023-01-13T22:07:59.383Z,8.52
2023-01-13T22:10:29.767Z,8.65
2023-01-13T22:12:59.273Z,8.70
2023-01-13T22:15:28.259Z,8.23
2023-01-13T22:17:56.149Z,8.07
2023-01-13T22:20:23.414Z,7.88
2023-01-13T22:22:50.384Z,9.23
2023-01-13T22:25:20.008Z,7.72
2023-01-13T22:27:48.294Z,7.22
2023-01-13T22:30:21.841Z,7.75
2023-01-13T22:32:49.028Z,7.97
2023-01-13T22:35:16.352Z,8.13
2023-01-13T22:37:43.498Z,8.68
2023-01-13T22:40:12.252Z,8.38
2023-01-13T22:42:42.988Z,7.57
2023-01-13T22:45:13.842Z,6.80
2023-01-13T22:47:40.839Z,7.37
2023-01-13T22:50:08.378Z,7.13
2023-01-13T22:52:36.232Z,6.78
2023-01-13T22:55:03.117Z,6.60
2023-01-13T22:57:36.038Z,6.47
2023-01-13T23:00:06.142Z,6.03
2023-01-13T23:02:34.548Z,6.50
2023-01-13T23:05:01.858Z,5.18
2023-01-13T23:07:29.137Z,5.40
2023-01-13T23:09:55.905Z,5.80
2023-01-13T23:12:22.675Z,6.00
2023-01-13T23:14:49.472Z,5.88
2023-01-13T23:17:16.223Z,5.05
2023-01-13T23:19:42.989Z,5.47
2023-01-13T23:22:09.816Z,6.78
2023-01-13T23:24:36.638Z,6.43
2023-01-13T23:27:03.604Z,6.20
2023-01-13T23:29:30.551Z,5.60
2023-01-13T23:31:57.298Z,5.55
2023-01-13T23:34:24.082Z,5.43
2023-01-13T23:36:50.866Z,5.85
2023-01-13T23:39:17.604Z,7.45
2023-01-13T23:41:44.359Z,9.68
2023-01-13T23:44:11.166Z,9.23
2023-01-13T23:46:38.073Z,9.43
2023-01-13T23:49:05.006Z,8.57
2023-01-13T23:51:32.219Z,9.32
2023-01-13T23:53:59.534Z,9.68
2023-01-13T23:56:31.251Z,8.55
